Time;durP1;ratioP1;P1;durP2;ratioP2;P2;SDS_P1;SDS_P2;PMS_P1;PMS_P2;Temp;Humidity;BMP_temperature;BMP_pressure;BME280_temperature;BME280_humidity;BME280_pressure;Samples;Min_cycle;Max_cycle;Signal;HPM_P1;HPM_P2
2021/11/29 00:01:11;;;;;;;22.13;15.88;;;;;;;9.50;79.00;97609.08;1711490;82;21030;-40
2021/11/29 00:03:39;;;;;;;22.22;16.10;;;;;;;9.55;79.07;97606.73;1717773;82;20938;-40
2021/11/29 00:06:07;;;;;;;24.12;16.90;;;;;;;9.64;79.11;97602.82;1705673;82;21527;-40
2021/11/29 00:08:34;;;;;;;23.95;17.20;;;;;;;9.67;79.17;97603.40;1701228;82;21125;-40
2021/11/29 00:11:02;;;;;;;22.30;16.20;;;;;;;9.69;79.27;97592.35;1706546;82;21085;-43
2021/11/29 00:13:29;;;;;;;21.07;15.70;;;;;;;9.73;79.05;97594.45;1707681;82;20973;-52
2021/11/29 00:15:56;;;;;;;23.87;16.45;;;;;;;9.80;78.96;97595.00;1705852;82;21077;-41
2021/11/29 00:18:24;;;;;;;22.95;16.80;;;;;;;9.86;78.93;97601.54;1710227;82;21033;-40
2021/11/29 00:20:51;;;;;;;23.15;16.97;;;;;;;9.86;78.87;97600.96;1705872;82;21779;-41
2021/11/29 00:23:20;;;;;;;20.92;15.55;;;;;;;9.89;78.77;97587.97;1711935;82;20930;-41
2021/11/29 00:25:47;;;;;;;21.12;16.25;;;;;;;9.97;78.58;97579.23;1729256;82;21089;-41
2021/11/29 00:28:16;;;;;;;26.42;16.62;;;;;;;10.00;78.39;97577.84;1713400;82;21017;-40
2021/11/29 00:30:44;;;;;;;22.17;16.65;;;;;;;9.97;78.34;97569.16;1705609;84;21100;-41
2021/11/29 00:33:13;;;;;;;19.25;15.28;;;;;;;9.96;78.33;97572.27;1727170;82;20970;-40
2021/11/29 00:35:42;;;;;;;21.48;15.58;;;;;;;9.95;78.22;97564.73;1717365;82;20978;-40
2021/11/29 00:38:09;;;;;;;22.65;16.25;;;;;;;9.97;78.20;97562.38;1727921;82;21005;-40
2021/11/29 00:40:40;;;;;;;30.52;18.02;;;;;;;9.95;78.31;97551.20;1713873;82;20997;-40
2021/11/29 00:43:07;;;;;;;21.40;16.02;;;;;;;9.93;78.33;97553.52;1706883;82;21014;-40
2021/11/29 00:45:34;;;;;;;20.43;15.58;;;;;;;9.90;78.45;97551.62;1726864;82;21831;-40
2021/11/29 00:48:02;;;;;;;21.73;16.45;;;;;;;9.99;78.46;97545.75;1705697;82;21562;-40
2021/11/29 00:50:30;;;;;;;21.40;16.85;;;;;;;10.03;78.49;97546.48;1705911;82;21464;-40
2021/11/29 00:52:58;;;;;;;23.75;16.90;;;;;;;10.07;78.65;97542.42;1706230;82;21598;-41
2021/11/29 00:55:25;;;;;;;21.48;16.27;;;;;;;10.08;78.49;97545.29;1730134;82;21484;-40
2021/11/29 00:57:54;;;;;;;19.60;15.63;;;;;;;10.12;78.31;97537.31;1709265;82;21500;-40
2021/11/29 01:00:22;;;;;;;20.08;16.82;;;;;;;10.14;78.16;97535.57;1710960;82;21536;-40
2021/11/29 01:02:52;;;;;;;25.72;18.62;;;;;;;10.12;78.28;97524.39;1724789;82;21041;-40
2021/11/29 01:05:19;;;;;;;20.32;16.23;;;;;;;10.12;78.36;97527.09;1731936;82;21081;-40
2021/11/29 01:07:46;;;;;;;20.55;15.72;;;;;;;10.10;78.44;97519.37;1732872;82;21049;-40
2021/11/29 01:10:16;;;;;;;20.32;16.07;;;;;;;10.17;78.29;97517.96;1715252;82;21909;-40
2021/11/29 01:12:43;;;;;;;25.95;18.10;;;;;;;10.18;78.17;97513.32;1715861;82;21033;-40
2021/11/29 01:15:14;;;;;;;22.82;17.20;;;;;;;10.15;78.28;97511.39;1706531;82;21112;-40
2021/11/29 01:17:41;;;;;;;19.82;15.78;;;;;;;10.13;78.28;97509.66;1713602;82;20906;-40
2021/11/29 01:20:09;;;;;;;22.48;17.48;;;;;;;10.15;78.28;97510.81;1705591;84;21041;-40
2021/11/29 01:22:36;;;;;;;19.52;15.43;;;;;;;10.19;78.16;97500.74;1726744;82;21130;-41
2021/11/29 01:25:04;;;;;;;24.43;17.52;;;;;;;10.16;78.19;97510.27;1744197;82;20949;-40
2021/11/29 01:27:31;;;;;;;22.70;16.70;;;;;;;10.11;78.34;97501.95;1735732;82;20988;-40
2021/11/29 01:29:58;;;;;;;19.60;15.28;;;;;;;10.10;78.44;97500.41;1719194;83;21355;-40
2021/11/29 01:32:25;;;;;;;22.55;16.73;;;;;;;10.14;78.39;97486.83;1719375;82;21634;-40
2021/11/29 01:34:53;;;;;;;21.20;17.02;;;;;;;10.16;78.37;97484.53;1720411;82;21535;-41
2021/11/29 01:37:20;;;;;;;23.67;16.15;;;;;;;10.16;78.57;97477.77;1735848;82;20985;-41
2021/11/29 01:39:47;;;;;;;21.00;16.05;;;;;;;10.18;78.52;97472.70;1727969;82;21072;-40
2021/11/29 01:42:15;;;;;;;20.75;17.05;;;;;;;10.21;78.31;97462.44;1719825;82;21033;-40
2021/11/29 01:44:42;;;;;;;21.42;16.90;;;;;;;10.25;78.31;97456.39;1719533;82;21032;-41
2021/11/29 01:47:09;;;;;;;23.65;16.93;;;;;;;10.25;78.40;97442.85;1724984;82;21140;-41
2021/11/29 01:49:37;;;;;;;18.40;14.90;;;;;;;10.24;78.43;97441.31;1727413;82;21021;-40
2021/11/29 01:52:05;;;;;;;20.77;15.90;;;;;;;10.24;78.34;97438.02;1721251;82;21037;-40
2021/11/29 01:54:34;;;;;;;21.62;16.40;;;;;;;10.27;78.18;97443.20;1736657;82;21001;-40
2021/11/29 01:57:01;;;;;;;22.35;17.62;;;;;;;10.25;78.18;97440.15;1736037;82;21013;-40
2021/11/29 01:59:28;;;;;;;17.50;14.93;;;;;;;10.22;78.23;97431.45;1744049;82;21075;-41
2021/11/29 02:01:55;;;;;;;20.10;15.48;;;;;;;10.20;78.28;97435.17;1739483;82;21531;-40
2021/11/29 02:04:22;;;;;;;21.17;16.75;;;;;;;10.26;78.26;97426.80;1748736;82;20929;-41
2021/11/29 02:06:50;;;;;;;21.77;16.87;;;;;;;10.25;78.18;97414.42;1737954;82;20972;-40
2021/11/29 02:09:17;;;;;;;19.62;14.55;;;;;;;10.22;78.30;97412.50;1735553;82;21037;-40
2021/11/29 02:11:44;;;;;;;20.65;14.65;;;;;;;10.21;78.37;97414.47;1747980;82;21813;-41
2021/11/29 02:14:12;;;;;;;20.48;15.40;;;;;;;10.25;78.23;97404.36;1748768;82;20997;-41
2021/11/29 02:16:39;;;;;;;20.68;15.70;;;;;;;10.28;78.26;97406.83;1728083;82;20980;-41
2021/11/29 02:19:06;;;;;;;19.98;14.00;;;;;;;10.26;78.34;97402.42;1736668;82;20946;-40
2021/11/29 02:21:33;;;;;;;19.25;13.98;;;;;;;10.25;78.24;97397.59;1719335;82;21044;-41
2021/11/29 02:24:06;;;;;;;17.67;13.22;;;;;;;10.30;78.29;97396.38;1716260;82;21810;-40
2021/11/29 02:26:35;;;;;;;19.30;13.38;;;;;;;10.36;78.27;97385.28;1717661;82;21516;-41
2021/11/29 02:29:15;;;;;;;16.55;13.95;;;;;;;10.35;78.20;97387.22;1705939;82;21002;-41
2021/11/29 02:31:48;;;;;;;18.42;13.10;;;;;;;10.36;78.11;97390.08;1704242;82;21054;-41
2021/11/29 02:34:22;;;;;;;16.90;13.75;;;;;;;10.40;77.88;97384.64;1705793;82;22077;-40
2021/11/29 02:37:30;;;;;;;15.32;13.72;;;;;;;10.48;77.87;97379.89;1826146;78;22652;-39
2021/11/29 02:39:57;;;;;;;17.00;12.75;;;;;;;10.42;77.80;97384.98;1761779;80;21043;-40
2021/11/29 02:42:25;;;;;;;14.43;12.43;;;;;;;10.42;77.78;97385.77;1767150;79;21531;-39
2021/11/29 02:44:52;;;;;;;17.67;12.70;;;;;;;10.50;77.57;97383.75;1759423;80;20937;-40
2021/11/29 02:47:19;;;;;;;21.37;14.15;;;;;;;10.53;77.51;97388.34;1753928;80;20960;-40
2021/11/29 02:49:47;;;;;;;17.10;14.33;;;;;;;10.51;77.43;97386.61;1756501;80;21004;-40
2021/11/29 02:52:15;;;;;;;18.75;12.98;;;;;;;10.46;77.42;97378.94;1753424;80;21460;-40
2021/11/29 02:54:44;;;;;;;14.18;12.15;;;;;;;10.42;77.40;97372.80;1779152;80;21138;-39
2021/11/29 02:57:18;;;;;;;16.87;13.20;;;;;;;10.42;77.37;97364.67;1767481;80;20958;-39
2021/11/29 02:59:45;;;;;;;18.75;13.70;;;;;;;10.40;77.45;97354.84;1756970;80;21023;-39
2021/11/29 03:02:18;;;;;;;16.30;12.68;;;;;;;10.37;77.55;97356.41;1775563;80;20922;-40
2021/11/29 03:04:46;;;;;;;13.35;11.95;;;;;;;10.35;77.73;97349.88;1771953;79;21052;-39
2021/11/29 03:07:14;;;;;;;14.58;12.43;;;;;;;10.42;77.50;97347.06;1757879;80;21138;-39
2021/11/29 03:09:41;;;;;;;16.32;13.48;;;;;;;10.43;77.41;97339.89;1758371;80;20944;-39
2021/11/29 03:12:09;;;;;;;14.70;11.93;;;;;;;10.43;77.41;97334.48;1774536;80;20957;-39
2021/11/29 03:14:37;;;;;;;14.68;11.88;;;;;;;10.41;77.41;97328.69;1753350;81;21064;-40
2021/11/29 03:17:04;;;;;;;16.85;11.88;;;;;;;10.47;77.24;97327.66;1777454;80;21028;-40
2021/11/29 03:19:34;;;;;;;16.02;11.88;;;;;;;10.51;77.00;97314.82;1783137;79;21123;-39
2021/11/29 03:22:03;;;;;;;14.18;12.60;;;;;;;10.50;77.08;97315.25;1782485;80;21052;-39
2021/11/29 03:24:31;;;;;;;17.05;11.88;;;;;;;10.48;77.11;97318.36;1771414;80;21569;-39
2021/11/29 03:26:58;;;;;;;14.65;11.90;;;;;;;10.48;76.96;97314.30;1766845;80;21037;-40
2021/11/29 03:29:27;;;;;;;16.85;12.33;;;;;;;10.53;76.85;97309.00;1783174;80;20996;-39
2021/11/29 03:31:58;;;;;;;14.75;11.68;;;;;;;10.52;76.75;97306.88;1782570;79;21548;-40
2021/11/29 03:34:25;;;;;;;17.37;13.38;;;;;;;10.49;76.87;97301.52;1757109;80;21293;-40
2021/11/29 03:36:52;;;;;;;13.62;10.35;;;;;;;10.48;76.76;97294.56;1763157;80;21274;-41
2021/11/29 03:39:26;;;;;;;13.20;10.72;;;;;;;10.47;76.73;97293.79;1786774;80;20937;-40
2021/11/29 03:41:57;;;;;;;14.35;11.73;;;;;;;10.51;76.77;97293.73;1769255;80;21040;-40
2021/11/29 03:44:25;;;;;;;14.95;12.65;;;;;;;10.54;76.73;97295.05;1759930;80;21039;-39
2021/11/29 03:46:52;;;;;;;12.53;10.68;;;;;;;10.52;76.57;97287.14;1759300;80;21436;-39
2021/11/29 03:49:19;;;;;;;12.55;10.13;;;;;;;10.54;76.47;97288.28;1788302;79;20996;-39
2021/11/29 03:51:46;;;;;;;14.25;11.45;;;;;;;10.59;76.31;97292.48;1776336;79;20996;-39
2021/11/29 03:54:13;;;;;;;13.60;11.70;;;;;;;10.57;76.24;97287.45;1782628;79;21005;-40
2021/11/29 03:56:40;;;;;;;14.43;11.15;;;;;;;10.54;76.30;97288.87;1759222;80;21084;-39
2021/11/29 03:59:07;;;;;;;13.55;11.22;;;;;;;10.49;76.37;97283.33;1758805;80;21084;-39
2021/11/29 04:01:35;;;;;;;11.97;10.72;;;;;;;10.45;76.47;97273.91;1766540;80;20953;-39
2021/11/29 04:04:03;;;;;;;13.22;11.73;;;;;;;10.48;76.38;97265.53;1758520;80;21004;-39
2021/11/29 04:06:31;;;;;;;13.90;11.97;;;;;;;10.48;76.44;97265.53;1780453;80;21037;-40
2021/11/29 04:08:59;;;;;;;13.55;11.85;;;;;;;10.43;76.43;97245.67;1764201;80;21122;-39
2021/11/29 04:11:26;;;;;;;14.30;10.72;;;;;;;10.39;76.48;97238.96;1782069;80;20959;-39
2021/11/29 04:13:54;;;;;;;14.63;10.25;;;;;;;10.43;76.45;97227.48;1758250;81;21063;-40
2021/11/29 04:16:21;;;;;;;13.40;12.00;;;;;;;10.49;76.38;97229.14;1774089;80;21005;-39
2021/11/29 04:18:48;;;;;;;14.98;11.90;;;;;;;10.48;76.33;97237.67;1766760;80;21033;-40
2021/11/29 04:21:16;;;;;;;14.03;10.90;;;;;;;10.46;76.30;97242.13;1784840;80;21127;-40
2021/11/29 04:23:45;;;;;;;14.47;11.70;;;;;;;10.46;76.20;97243.48;1709089;81;21015;-40
2021/11/29 04:26:15;;;;;;;14.05;11.38;;;;;;;10.50;76.13;97242.10;1711254;82;21088;-40
2021/11/29 04:28:42;;;;;;;14.35;12.58;;;;;;;10.50;75.99;97242.10;1708972;84;21479;-41
2021/11/29 04:31:09;;;;;;;15.08;12.20;;;;;;;10.49;76.00;97236.50;1717309;82;21028;-40
2021/11/29 04:33:36;;;;;;;12.43;10.45;;;;;;;10.49;75.96;97231.85;1701731;81;21184;-39
2021/11/29 04:36:04;;;;;;;15.98;12.13;;;;;;;10.51;75.81;97230.84;1708435;82;20989;-40
2021/11/29 04:38:32;;;;;;;17.73;12.10;;;;;;;10.56;75.64;97225.54;1740137;82;20974;-40
2021/11/29 04:41:00;;;;;;;18.65;13.88;;;;;;;10.57;75.65;97221.66;1741427;82;21024;-39
2021/11/29 04:43:27;;;;;;;15.83;13.78;;;;;;;10.57;75.58;97218.95;1745939;82;21037;-39
2021/11/29 04:45:54;;;;;;;17.15;11.93;;;;;;;10.56;75.49;97214.12;1744536;82;21100;-40
2021/11/29 04:48:21;;;;;;;18.62;13.08;;;;;;;10.60;75.43;97212.73;1727124;82;20976;-39
2021/11/29 04:50:48;;;;;;;16.87;12.65;;;;;;;10.65;75.18;97203.52;1699154;81;21045;-40
2021/11/29 04:53:15;;;;;;;17.65;13.50;;;;;;;10.62;75.08;97205.70;1753660;79;21017;-39
2021/11/29 04:55:43;;;;;;;14.13;12.63;;;;;;;10.59;74.97;97204.42;1781926;79;21028;-39
2021/11/29 04:58:10;;;;;;;14.70;11.73;;;;;;;10.53;75.09;97209.53;1751512;80;21121;-40
2021/11/29 05:00:37;;;;;;;16.40;12.05;;;;;;;10.52;75.05;97208.58;1757007;80;20976;-40
2021/11/29 05:03:04;;;;;;;16.12;12.63;;;;;;;10.55;75.08;97205.84;1770991;80;20977;-40
2021/11/29 05:05:31;;;;;;;14.13;12.05;;;;;;;10.56;75.00;97202.52;1750534;80;21037;-40
2021/11/29 05:07:59;;;;;;;14.68;11.95;;;;;;;10.54;74.96;97209.72;1750968;80;21080;-40
2021/11/29 05:10:26;;;;;;;13.70;12.05;;;;;;;10.50;74.96;97203.59;1770101;80;21128;-40
2021/11/29 05:12:53;;;;;;;13.75;12.20;;;;;;;10.52;74.96;97197.74;1777468;80;21012;-39
2021/11/29 05:15:21;;;;;;;14.55;12.20;;;;;;;10.51;74.95;97198.33;1751908;80;21556;-39
2021/11/29 05:17:48;;;;;;;18.85;13.68;;;;;;;10.50;75.06;97187.92;1756567;80;20969;-40
2021/11/29 05:20:15;;;;;;;15.68;11.75;;;;;;;10.49;75.15;97190.45;1753093;80;21033;-40
2021/11/29 05:22:42;;;;;;;12.95;11.60;;;;;;;10.49;75.07;97188.51;1775394;80;21763;-40
2021/11/29 05:25:09;;;;;;;16.10;12.85;;;;;;;10.51;74.98;97188.08;1778659;80;20953;-40
2021/11/29 05:27:37;;;;;;;16.10;13.95;;;;;;;10.55;74.82;97183.39;1775116;79;21867;-40
2021/11/29 05:30:07;;;;;;;16.85;14.30;;;;;;;10.52;74.84;97188.26;1772687;80;22009;-40
2021/11/29 05:32:36;;;;;;;19.90;14.40;;;;;;;10.46;74.88;97187.95;1776582;79;21013;-39
2021/11/29 05:35:05;;;;;;;14.13;11.65;;;;;;;10.41;75.00;97182.42;1750380;82;21845;-39
2021/11/29 05:37:32;;;;;;;14.28;12.43;;;;;;;10.40;75.01;97176.08;1763615;79;21008;-39
2021/11/29 05:39:59;;;;;;;14.93;12.78;;;;;;;10.44;74.95;97184.91;1789695;80;20992;-40
2021/11/29 05:42:26;;;;;;;17.25;13.60;;;;;;;10.45;74.87;97182.38;1777120;80;20934;-39
2021/11/29 05:44:54;;;;;;;17.15;13.85;;;;;;;10.41;74.89;97184.36;1765830;80;21005;-40
2021/11/29 05:47:21;;;;;;;15.13;12.82;;;;;;;10.39;74.94;97194.86;1780934;80;22327;-52
2021/11/29 05:49:48;;;;;;;15.85;12.68;;;;;;;10.37;74.92;97193.12;1776079;80;21305;-40
2021/11/29 05:52:16;;;;;;;16.20;12.47;;;;;;;10.42;74.79;97198.08;1768464;78;21474;-40
2021/11/29 05:54:43;;;;;;;18.67;15.10;;;;;;;10.41;74.84;97197.31;1781497;80;20949;-40
2021/11/29 05:57:13;;;;;;;21.17;15.72;;;;;;;10.37;74.94;97195.25;1788171;79;20980;-39
2021/11/29 05:59:41;;;;;;;18.45;13.75;;;;;;;10.34;75.00;97198.02;1788826;80;21560;-39
2021/11/29 06:02:08;;;;;;;16.60;13.08;;;;;;;10.31;75.07;97208.33;1790713;79;20956;-39
2021/11/29 06:04:36;;;;;;;18.25;13.80;;;;;;;10.35;75.05;97195.50;1799754;79;20957;-39
2021/11/29 06:07:04;;;;;;;17.67;14.18;;;;;;;10.37;74.96;97191.19;1774842;78;21558;-39
2021/11/29 06:09:31;;;;;;;20.43;15.60;;;;;;;10.36;75.03;97195.69;1756725;78;21037;-39
2021/11/29 06:11:58;;;;;;;18.70;14.70;;;;;;;10.35;75.04;97191.44;1789503;80;21178;-39
2021/11/29 06:14:26;;;;;;;17.67;12.93;;;;;;;10.34;75.02;97187.96;1777294;80;21012;-39
2021/11/29 06:16:55;;;;;;;16.10;13.35;;;;;;;10.36;74.99;97195.06;1783564;80;21567;-39
2021/11/29 06:19:22;;;;;;;16.60;14.75;;;;;;;10.37;74.89;97184.42;1758231;81;21044;-39
2021/11/29 06:21:50;;;;;;;19.35;15.43;;;;;;;10.36;74.96;97190.27;1758266;81;21013;-39
2021/11/29 06:24:17;;;;;;;19.32;14.78;;;;;;;10.33;74.98;97174.81;1765975;80;21138;-39
2021/11/29 06:26:44;;;;;;;17.77;13.98;;;;;;;10.32;75.11;97174.64;1774482;80;20985;-39
2021/11/29 06:29:11;;;;;;;16.87;13.43;;;;;;;10.33;75.12;97162.62;1758235;81;21543;-39
2021/11/29 06:31:38;;;;;;;16.50;13.00;;;;;;;10.41;74.94;97164.04;1784527;80;20893;-40
2021/11/29 06:34:05;;;;;;;16.95;14.00;;;;;;;10.47;74.82;97156.98;1789327;80;21072;-40
2021/11/29 06:36:33;;;;;;;23.90;14.38;;;;;;;10.48;74.70;97157.17;1789053;78;21152;-40
2021/11/29 06:39:00;;;;;;;19.98;15.95;;;;;;;10.49;74.74;97149.81;1786976;80;20918;-40
2021/11/29 06:41:27;;;;;;;18.85;14.75;;;;;;;10.45;74.68;97144.45;1785265;80;20953;-39
2021/11/29 06:43:54;;;;;;;18.15;14.07;;;;;;;10.43;74.77;97142.73;1785226;78;21503;-39
2021/11/29 06:46:22;;;;;;;17.87;13.83;;;;;;;10.49;74.48;97133.55;1773209;80;21499;-39
2021/11/29 06:48:50;;;;;;;21.12;15.20;;;;;;;10.49;74.47;97126.78;1764182;80;21628;-40
2021/11/29 06:51:17;;;;;;;19.62;15.38;;;;;;;10.45;74.61;97122.79;1770903;78;21024;-39
2021/11/29 06:53:46;;;;;;;19.25;14.63;;;;;;;10.43;74.61;97111.00;1765737;80;21487;-39
2021/11/29 06:56:13;;;;;;;17.42;14.00;;;;;;;10.43;74.62;97104.81;1755600;80;21108;-39
2021/11/29 06:58:40;;;;;;;21.17;14.98;;;;;;;10.49;74.45;97099.11;1756993;80;21811;-39
2021/11/29 07:01:08;;;;;;;20.55;15.48;;;;;;;10.48;74.41;97102.22;1763360;80;21078;-40
2021/11/29 07:03:35;;;;;;;21.70;16.00;;;;;;;10.41;74.57;97097.68;1768795;80;20953;-39
2021/11/29 07:06:03;;;;;;;21.12;15.13;;;;;;;10.36;74.72;97092.77;1786956;80;21579;-39
2021/11/29 07:08:30;;;;;;;18.12;14.38;;;;;;;10.36;74.83;97093.50;1786875;79;20974;-39
2021/11/29 07:10:58;;;;;;;19.30;16.25;;;;;;;10.40;74.74;97077.22;1787119;79;20985;-40
2021/11/29 07:13:26;;;;;;;20.57;16.60;;;;;;;10.40;74.79;97075.86;1786940;79;21174;-40
2021/11/29 07:15:54;;;;;;;20.90;16.30;;;;;;;10.38;74.92;97067.37;1762731;80;20933;-40
2021/11/29 07:18:22;;;;;;;19.82;14.70;;;;;;;10.37;75.02;97069.89;1755641;79;21071;-39
2021/11/29 07:20:49;;;;;;;20.85;14.98;;;;;;;9.19;74.98;96890.91;1786374;79;21524;-39
2021/11/29 07:23:16;;;;;;;19.77;15.95;;;;;;;10.41;75.07;97067.30;1763128;80;21471;-39
2021/11/29 07:25:43;;;;;;;19.98;16.30;;;;;;;10.14;75.04;97027.91;1756075;81;21147;-40
2021/11/29 07:28:12;;;;;;;18.00;15.32;;;;;;;10.39;75.17;97056.72;1755939;80;20894;-40
2021/11/29 07:30:39;;;;;;;17.92;14.15;;;;;;;10.43;75.12;97064.19;1759059;80;21615;-39
2021/11/29 07:33:06;;;;;;;23.90;15.50;;;;;;;10.53;75.01;97065.17;1779253;79;21473;-40
2021/11/29 07:35:35;;;;;;;19.65;15.30;;;;;;;10.60;74.83;97052.88;1781097;80;20998;-39
2021/11/29 07:38:02;;;;;;;22.98;16.45;;;;;;;10.61;74.86;97051.08;1770325;80;21126;-40
2021/11/29 07:40:29;;;;;;;20.60;14.23;;;;;;;10.67;74.82;97045.36;1770743;81;21032;-40
2021/11/29 07:43:01;;;;;;;22.13;14.23;;;;;;;10.75;74.65;97039.20;1765909;81;21001;-40
2021/11/29 07:45:32;;;;;;;19.20;15.20;;;;;;;10.83;74.38;97039.27;1738384;80;20977;-39
2021/11/29 07:48:00;;;;;;;23.20;17.50;;;;;;;10.89;74.14;97032.92;1758461;81;21572;-39
2021/11/29 07:50:28;;;;;;;20.48;16.12;;;;;;;10.90;74.17;97031.75;1760192;81;21911;-40
2021/11/29 07:52:55;;;;;;;20.88;15.60;;;;;;;10.89;74.10;97041.67;1755233;81;21014;-40
2021/11/29 07:55:24;;;;;;;15.98;13.55;;;;;;;10.92;74.07;97030.56;1746894;81;20986;-40
2021/11/29 07:57:52;;;;;;;22.32;15.38;;;;;;;10.93;74.02;97029.39;1761835;81;21464;-40
2021/11/29 08:00:22;;;;;;;20.00;15.98;;;;;;;10.93;74.06;97032.11;1763603;79;21560;-40
2021/11/29 08:02:51;;;;;;;21.93;16.10;;;;;;;10.90;74.00;97030.39;1764927;81;21106;-40
2021/11/29 08:05:20;;;;;;;18.23;14.70;;;;;;;10.88;74.04;97023.28;1770013;79;21035;-39
2021/11/29 08:07:49;;;;;;;20.27;13.88;;;;;;;10.86;74.20;97017.50;1756597;81;21540;-40
2021/11/29 08:10:17;;;;;;;21.67;15.27;;;;;;;10.92;74.22;97019.73;1742645;81;21519;-40
2021/11/29 08:12:45;;;;;;;22.10;16.15;;;;;;;10.96;74.18;97009.57;1762892;81;21507;-40
2021/11/29 08:15:13;;;;;;;21.40;16.93;;;;;;;10.93;74.35;97008.47;1765907;79;21125;-40
2021/11/29 08:17:40;;;;;;;20.55;14.80;;;;;;;10.91;74.55;97010.83;1761245;81;20953;-39
2021/11/29 08:20:10;;;;;;;20.05;14.40;;;;;;;10.90;74.62;96995.15;1765422;81;21452;-40
2021/11/29 08:22:38;;;;;;;23.18;15.80;;;;;;;10.94;74.59;96979.42;1767896;81;20985;-39
2021/11/29 08:25:06;;;;;;;19.85;15.98;;;;;;;10.97;74.72;96978.57;1761086;81;21032;-40
2021/11/29 08:27:34;;;;;;;21.50;17.17;;;;;;;10.97;74.88;96975.86;1765991;81;21059;-40
2021/11/29 08:30:04;;;;;;;21.25;15.28;;;;;;;10.97;75.03;96975.86;1750955;79;21073;-40
2021/11/29 08:32:32;;;;;;;22.85;15.43;;;;;;;10.98;75.11;96973.33;1772810;81;21037;-40
2021/11/29 08:34:59;;;;;;;22.10;15.65;;;;;;;11.05;75.11;96959.02;1773655;79;20976;-40
2021/11/29 08:37:26;;;;;;;24.85;16.85;;;;;;;11.11;75.00;96943.78;1773104;79;21093;-40
2021/11/29 08:39:53;;;;;;;22.80;17.57;;;;;;;11.12;75.05;96930.41;1760889;79;21129;-40
2021/11/29 08:42:22;;;;;;;22.45;15.30;;;;;;;11.14;75.04;96928.61;1770887;79;20934;-41
2021/11/29 08:44:49;;;;;;;23.18;15.48;;;;;;;11.17;74.96;96923.13;1763226;81;21011;-41
2021/11/29 08:47:16;;;;;;;25.85;16.70;;;;;;;11.22;74.95;96915.08;1768065;81;21559;-41
2021/11/29 08:49:44;;;;;;;25.97;17.80;;;;;;;11.24;74.90;96914.81;1772694;81;20998;-41
2021/11/29 08:52:12;;;;;;;25.27;17.67;;;;;;;11.22;75.00;96916.44;1769343;81;21840;-41
2021/11/29 08:54:40;;;;;;;23.98;16.25;;;;;;;11.20;75.09;96908.71;1766933;79;21041;-41
2021/11/29 08:57:09;;;;;;;25.72;17.05;;;;;;;11.20;75.11;96895.74;1743590;80;21456;-41
2021/11/29 08:59:36;;;;;;;29.12;18.90;;;;;;;11.25;75.15;96887.87;1742344;82;20957;-41
2021/11/29 09:02:04;;;;;;;25.45;19.07;;;;;;;11.30;75.20;96882.53;1746867;81;20974;-41
2021/11/29 09:04:31;;;;;;;25.15;18.82;;;;;;;11.27;75.19;96884.16;1768325;81;21101;-40
2021/11/29 09:06:59;;;;;;;23.32;15.43;;;;;;;11.27;75.23;96884.73;1765387;81;21017;-41
2021/11/29 09:09:31;;;;;;;26.27;17.30;;;;;;;11.28;75.31;96891.08;1772830;81;21069;-41
2021/11/29 09:11:55;;;;;;;;;;;;;;;11.37;75.17;96887.03;1773414;79;21061;-41
2021/11/29 09:14:22;;;;;;;30.23;17.95;;;;;;;11.39;75.15;96893.55;1765101;81;20210;-41
2021/11/29 09:16:51;;;;;;;23.73;16.80;;;;;;;11.28;75.39;96890.31;1742805;79;21173;-41
2021/11/29 09:19:18;;;;;;;24.95;15.85;;;;;;;11.27;75.40;96886.86;1762795;79;20968;-41
2021/11/29 09:21:45;;;;;;;27.25;16.93;;;;;;;11.30;75.26;96883.88;1755642;81;20910;-41
2021/11/29 09:24:12;;;;;;;27.93;18.57;;;;;;;11.33;75.32;96866.16;1754200;79;20990;-41
2021/11/29 09:26:40;;;;;;;27.05;18.35;;;;;;;11.33;75.45;96863.45;1769739;81;21548;-41
2021/11/29 09:29:07;;;;;;;25.60;16.75;;;;;;;11.29;75.46;96856.58;1752267;79;21069;-41
2021/11/29 09:31:34;;;;;;;22.27;16.23;;;;;;;11.30;75.62;96849.39;1770376;79;20991;-41
2021/11/29 09:34:02;;;;;;;25.72;17.07;;;;;;;11.37;75.42;96840.33;1748024;81;21064;-41
2021/11/29 09:36:32;;;;;;;26.60;18.15;;;;;;;11.35;75.47;96834.55;1769747;79;21045;-41
2021/11/29 09:38:59;;;;;;;26.37;17.50;;;;;;;11.33;75.66;96828.78;1781837;80;21074;-41
2021/11/29 09:41:26;;;;;;;24.15;14.98;;;;;;;11.30;75.76;96821.50;1777793;78;21143;-40
2021/11/29 09:43:54;;;;;;;25.52;17.32;;;;;;;11.34;75.81;96801.83;1783152;78;21014;-41
2021/11/29 09:46:22;;;;;;;25.62;17.05;;;;;;;11.39;75.78;96797.83;1788775;80;21044;-41
2021/11/29 09:48:50;;;;;;;27.32;18.52;;;;;;;11.38;75.92;96791.64;1773850;78;21089;-41
2021/11/29 09:51:17;;;;;;;26.37;16.17;;;;;;;11.39;75.97;96793.77;1784123;78;21017;-41
2021/11/29 09:53:44;;;;;;;25.23;15.18;;;;;;;11.43;75.90;96793.84;1785660;80;21966;-41
2021/11/29 09:56:12;;;;;;;26.17;17.48;;;;;;;11.21;75.75;96732.61;1786739;78;21524;-41
2021/11/29 09:58:41;;;;;;;26.10;17.80;;;;;;;11.57;75.70;96769.05;1784897;78;21334;-41
2021/11/29 10:01:08;;;;;;;27.40;18.50;;;;;;;11.59;75.69;96763.97;1785253;80;20995;-41
2021/11/29 10:03:36;;;;;;;28.92;16.77;;;;;;;11.60;75.58;96760.66;1789390;80;21007;-41
2021/11/29 10:06:04;;;;;;;24.67;16.00;;;;;;;11.63;75.58;96745.63;1782246;78;21179;-41
2021/11/29 10:08:36;;;;;;;24.75;17.87;;;;;;;11.66;75.36;96738.01;1787253;80;20996;-41
2021/11/29 10:11:12;;;;;;;29.20;19.17;;;;;;;11.69;75.41;96730.95;1785387;79;20932;-41
2021/11/29 10:14:03;;;;;;;27.40;19.15;;;;;;;11.68;75.50;96724.75;1788104;80;21581;-41
2021/11/29 10:16:46;;;;;;;23.67;17.57;;;;;;;11.68;75.52;96713.89;1786697;80;21005;-41
2021/11/29 10:19:25;;;;;;;24.20;17.48;;;;;;;11.76;75.49;96713.14;1787982;80;21459;-40
2021/11/29 10:21:53;;;;;;;27.50;18.15;;;;;;;11.84;75.35;96706.91;1781693;78;20952;-41
2021/11/29 10:24:22;;;;;;;25.72;19.90;;;;;;;11.86;75.18;96706.63;1773906;80;21052;-41
2021/11/29 10:26:54;;;;;;;25.50;16.05;;;;;;;11.87;75.02;96711.46;1766306;80;20992;-40
2021/11/29 10:29:25;;;;;;;24.63;16.95;;;;;;;11.87;75.01;96712.23;1775415;78;21303;-41
2021/11/29 10:31:54;;;;;;;22.22;16.77;;;;;;;11.95;74.96;96710.09;1783586;80;21742;-41
2021/11/29 10:34:30;;;;;;;29.10;19.07;;;;;;;11.99;74.81;96707.42;1784190;80;21558;-40
2021/11/29 10:37:12;;;;;;;27.75;19.60;;;;;;;12.02;74.73;96707.14;1783232;79;21627;-41
2021/11/29 10:39:42;;;;;;;19.45;14.80;;;;;;;12.00;74.61;96700.81;1768728;80;21008;-41
2021/11/29 10:42:12;;;;;;;19.67;15.53;;;;;;;11.99;74.71;96703.95;1760657;79;21073;-41
2021/11/29 10:44:43;;;;;;;21.23;17.00;;;;;;;12.04;74.53;96704.17;1734132;80;21837;-40
2021/11/29 10:47:19;;;;;;;23.30;18.02;;;;;;;12.05;74.48;96698.15;1724719;83;20981;-41
2021/11/29 10:49:50;;;;;;;21.65;17.30;;;;;;;12.04;74.54;96695.27;1759163;79;21794;-41
2021/11/29 10:52:23;;;;;;;21.77;14.75;;;;;;;12.00;74.61;96695.97;1760442;81;20992;-40
2021/11/29 10:54:51;;;;;;;18.90;15.85;;;;;;;12.01;74.58;96687.97;1760849;79;21476;-41
2021/11/29 10:57:18;;;;;;;20.52;16.57;;;;;;;12.04;74.57;96684.41;1765656;79;21134;-40
2021/11/29 10:59:48;;;;;;;23.02;16.57;;;;;;;12.04;74.62;96677.62;1757264;81;20946;-41
2021/11/29 11:02:22;;;;;;;21.00;15.72;;;;;;;12.04;74.61;96674.90;1768822;81;21630;-41
2021/11/29 11:05:02;;;;;;;21.93;15.18;;;;;;;12.07;74.45;96676.14;1770442;81;21068;-41
2021/11/29 11:07:32;;;;;;;23.45;16.35;;;;;;;12.13;74.33;96674.41;1738120;81;21001;-41
2021/11/29 11:10:00;;;;;;;23.57;16.42;;;;;;;12.17;74.23;96671.58;1754443;80;21115;-41
2021/11/29 11:12:33;;;;;;;19.02;16.02;;;;;;;12.16;74.13;96667.34;1750685;81;20921;-41
2021/11/29 11:15:05;;;;;;;18.62;14.35;;;;;;;12.14;74.05;96658.88;1755042;81;20967;-41
2021/11/29 11:17:32;;;;;;;17.80;13.50;;;;;;;12.12;74.01;96667.45;1768255;80;21061;-40
2021/11/29 11:20:06;;;;;;;20.68;15.35;;;;;;;12.13;73.97;96659.48;1772120;81;21061;-40
2021/11/29 11:22:36;;;;;;;19.73;15.98;;;;;;;12.16;73.87;96640.95;1766665;81;21228;-41